sensor_id;sensor_type;location;lat;lon;timestamp;P1;durP1;ratioP1;P2;durP2;ratioP2
4819;SDS011;2424;49.696;6.630;2023-12-04T00:01:29;1.20;;;1.17;;
4819;SDS011;2424;49.696;6.630;2023-12-04T00:06:51;0.83;;;0.83;;
4819;SDS011;2424;49.696;6.630;2023-12-04T00:12:14;0.87;;;0.87;;
4819;SDS011;2424;49.696;6.630;2023-12-04T00:17:36;1.47;;;1.40;;
4819;SDS011;2424;49.696;6.630;2023-12-04T00:22:59;0.93;;;0.93;;
4819;SDS011;2424;49.696;6.630;2023-12-04T00:28:23;7.10;;;1.47;;
4819;SDS011;2424;49.696;6.630;2023-12-04T00:33:45;1.50;;;1.47;;
4819;SDS011;2424;49.696;6.630;2023-12-04T00:39:08;1.73;;;0.97;;
4819;SDS011;2424;49.696;6.630;2023-12-04T00:44:31;0.43;;;0.43;;
4819;SDS011;2424;49.696;6.630;2023-12-04T00:49:53;0.83;;;0.83;;
4819;SDS011;2424;49.696;6.630;2023-12-04T00:55:15;1.63;;;1.53;;
4819;SDS011;2424;49.696;6.630;2023-12-04T01:00:38;1.07;;;1.07;;
4819;SDS011;2424;49.696;6.630;2023-12-04T01:06:00;2.00;;;1.13;;
4819;SDS011;2424;49.696;6.630;2023-12-04T01:11:22;2.13;;;1.23;;
4819;SDS011;2424;49.696;6.630;2023-12-04T01:16:46;0.93;;;0.93;;
4819;SDS011;2424;49.696;6.630;2023-12-04T01:22:08;1.13;;;1.13;;
4819;SDS011;2424;49.696;6.630;2023-12-04T01:27:30;1.23;;;1.13;;
4819;SDS011;2424;49.696;6.630;2023-12-04T01:32:53;0.70;;;0.70;;
4819;SDS011;2424;49.696;6.630;2023-12-04T01:38:15;0.97;;;0.97;;
4819;SDS011;2424;49.696;6.630;2023-12-04T01:43:37;0.20;;;0.20;;
4819;SDS011;2424;49.696;6.630;2023-12-04T01:49:00;0.93;;;0.93;;
4819;SDS011;2424;49.696;6.630;2023-12-04T01:54:23;1.33;;;1.23;;
4819;SDS011;2424;49.696;6.630;2023-12-04T01:59:46;6.10;;;1.37;;
4819;SDS011;2424;49.696;6.630;2023-12-04T02:05:10;0.67;;;0.67;;
4819;SDS011;2424;49.696;6.630;2023-12-04T02:10:34;0.70;;;0.70;;
4819;SDS011;2424;49.696;6.630;2023-12-04T02:15:56;0.83;;;0.83;;
4819;SDS011;2424;49.696;6.630;2023-12-04T02:21:24;1.53;;;1.43;;
4819;SDS011;2424;49.696;6.630;2023-12-04T02:26:47;1.43;;;1.33;;
4819;SDS011;2424;49.696;6.630;2023-12-04T02:32:14;1.20;;;1.20;;
4819;SDS011;2424;49.696;6.630;2023-12-04T02:37:38;0.80;;;0.80;;
4819;SDS011;2424;49.696;6.630;2023-12-04T02:43:03;3.67;;;1.97;;
4819;SDS011;2424;49.696;6.630;2023-12-04T02:48:25;0.90;;;0.90;;
4819;SDS011;2424;49.696;6.630;2023-12-04T02:53:47;0.80;;;0.70;;
4819;SDS011;2424;49.696;6.630;2023-12-04T02:59:10;0.87;;;0.83;;
4819;SDS011;2424;49.696;6.630;2023-12-04T03:04:32;1.43;;;0.93;;
4819;SDS011;2424;49.696;6.630;2023-12-04T03:09:55;0.67;;;0.67;;
4819;SDS011;2424;49.696;6.630;2023-12-04T03:15:18;0.70;;;0.70;;
4819;SDS011;2424;49.696;6.630;2023-12-04T03:20:40;0.93;;;0.93;;
4819;SDS011;2424;49.696;6.630;2023-12-04T03:26:02;0.50;;;0.40;;
4819;SDS011;2424;49.696;6.630;2023-12-04T03:31:26;2.63;;;1.33;;
4819;SDS011;2424;49.696;6.630;2023-12-04T03:36:48;0.50;;;0.50;;
4819;SDS011;2424;49.696;6.630;2023-12-04T03:42:10;0.63;;;0.57;;
4819;SDS011;2424;49.696;6.630;2023-12-04T03:47:33;2.63;;;0.80;;
4819;SDS011;2424;49.696;6.630;2023-12-04T03:52:55;1.87;;;0.93;;
4819;SDS011;2424;49.696;6.630;2023-12-04T03:58:17;2.23;;;1.33;;
4819;SDS011;2424;49.696;6.630;2023-12-04T04:03:40;0.60;;;0.60;;
4819;SDS011;2424;49.696;6.630;2023-12-04T04:09:03;0.50;;;0.50;;
4819;SDS011;2424;49.696;6.630;2023-12-04T04:14:25;0.73;;;0.73;;
4819;SDS011;2424;49.696;6.630;2023-12-04T04:19:48;0.80;;;0.63;;
4819;SDS011;2424;49.696;6.630;2023-12-04T04:25:10;0.43;;;0.43;;
4819;SDS011;2424;49.696;6.630;2023-12-04T04:30:32;0.43;;;0.37;;
4819;SDS011;2424;49.696;6.630;2023-12-04T04:35:55;0.60;;;0.60;;
4819;SDS011;2424;49.696;6.630;2023-12-04T04:41:17;0.50;;;0.50;;
4819;SDS011;2424;49.696;6.630;2023-12-04T04:46:39;0.73;;;0.73;;
4819;SDS011;2424;49.696;6.630;2023-12-04T04:52:03;0.73;;;0.60;;
4819;SDS011;2424;49.696;6.630;2023-12-04T04:57:25;0.63;;;0.63;;
4819;SDS011;2424;49.696;6.630;2023-12-04T05:02:47;1.90;;;1.80;;
4819;SDS011;2424;49.696;6.630;2023-12-04T05:08:10;1.07;;;1.07;;
4819;SDS011;2424;49.696;6.630;2023-12-04T05:13:32;0.47;;;0.47;;
4819;SDS011;2424;49.696;6.630;2023-12-04T05:18:54;0.97;;;0.97;;
4819;SDS011;2424;49.696;6.630;2023-12-04T05:24:18;1.23;;;1.20;;
4819;SDS011;2424;49.696;6.630;2023-12-04T05:29:39;1.97;;;1.80;;
4819;SDS011;2424;49.696;6.630;2023-12-04T05:35:01;0.83;;;0.83;;
4819;SDS011;2424;49.696;6.630;2023-12-04T05:40:25;0.33;;;0.30;;
4819;SDS011;2424;49.696;6.630;2023-12-04T05:45:47;1.90;;;1.80;;
4819;SDS011;2424;49.696;6.630;2023-12-04T05:51:09;0.63;;;0.63;;
4819;SDS011;2424;49.696;6.630;2023-12-04T05:56:33;0.63;;;0.63;;
4819;SDS011;2424;49.696;6.630;2023-12-04T06:01:55;2.87;;;0.90;;
4819;SDS011;2424;49.696;6.630;2023-12-04T06:07:18;0.90;;;0.90;;
4819;SDS011;2424;49.696;6.630;2023-12-04T06:12:42;2.60;;;2.47;;
4819;SDS011;2424;49.696;6.630;2023-12-04T06:18:04;1.17;;;1.17;;
4819;SDS011;2424;49.696;6.630;2023-12-04T06:23:26;2.20;;;2.00;;
4819;SDS011;2424;49.696;6.630;2023-12-04T06:28:50;0.63;;;0.63;;
4819;SDS011;2424;49.696;6.630;2023-12-04T06:34:12;0.60;;;0.60;;
4819;SDS011;2424;49.696;6.630;2023-12-04T06:39:34;0.60;;;0.60;;
4819;SDS011;2424;49.696;6.630;2023-12-04T06:45:00;1.13;;;1.13;;
4819;SDS011;2424;49.696;6.630;2023-12-04T06:50:23;3.23;;;2.47;;
4819;SDS011;2424;49.696;6.630;2023-12-04T06:55:44;2.60;;;1.07;;
4819;SDS011;2424;49.696;6.630;2023-12-04T07:01:08;1.90;;;1.10;;
4819;SDS011;2424;49.696;6.630;2023-12-04T07:06:30;1.70;;;1.40;;
4819;SDS011;2424;49.696;6.630;2023-12-04T07:11:52;10.73;;;2.80;;
4819;SDS011;2424;49.696;6.630;2023-12-04T07:17:15;0.67;;;0.67;;
4819;SDS011;2424;49.696;6.630;2023-12-04T07:22:37;1.33;;;1.33;;
4819;SDS011;2424;49.696;6.630;2023-12-04T07:28:00;1.43;;;1.37;;
4819;SDS011;2424;49.696;6.630;2023-12-04T07:33:23;1.13;;;1.10;;
4819;SDS011;2424;49.696;6.630;2023-12-04T07:38:45;1.50;;;1.50;;
4819;SDS011;2424;49.696;6.630;2023-12-04T07:44:07;1.43;;;1.43;;
4819;SDS011;2424;49.696;6.630;2023-12-04T07:49:30;8.13;;;1.93;;
4819;SDS011;2424;49.696;6.630;2023-12-04T07:54:52;0.63;;;0.57;;
4819;SDS011;2424;49.696;6.630;2023-12-04T08:00:14;1.53;;;1.43;;
4819;SDS011;2424;49.696;6.630;2023-12-04T08:05:39;0.97;;;0.97;;
4819;SDS011;2424;49.696;6.630;2023-12-04T08:11:01;1.60;;;1.60;;
4819;SDS011;2424;49.696;6.630;2023-12-04T08:16:23;1.17;;;1.17;;
4819;SDS011;2424;49.696;6.630;2023-12-04T08:21:48;1.07;;;0.83;;
4819;SDS011;2424;49.696;6.630;2023-12-04T08:27:10;1.10;;;1.07;;
4819;SDS011;2424;49.696;6.630;2023-12-04T08:32:32;2.37;;;0.97;;
4819;SDS011;2424;49.696;6.630;2023-12-04T08:37:55;1.10;;;1.10;;
4819;SDS011;2424;49.696;6.630;2023-12-04T08:43:17;1.47;;;1.30;;
4819;SDS011;2424;49.696;6.630;2023-12-04T08:48:39;1.37;;;1.27;;
4819;SDS011;2424;49.696;6.630;2023-12-04T08:54:03;1.53;;;1.43;;
4819;SDS011;2424;49.696;6.630;2023-12-04T08:59:25;1.47;;;1.47;;
4819;SDS011;2424;49.696;6.630;2023-12-04T09:04:47;0.47;;;0.47;;
4819;SDS011;2424;49.696;6.630;2023-12-04T09:10:11;0.30;;;0.30;;
4819;SDS011;2424;49.696;6.630;2023-12-04T09:15:32;0.90;;;0.90;;
4819;SDS011;2424;49.696;6.630;2023-12-04T09:20:54;0.30;;;0.30;;
4819;SDS011;2424;49.696;6.630;2023-12-04T09:26:18;1.70;;;1.70;;
4819;SDS011;2424;49.696;6.630;2023-12-04T09:31:40;0.70;;;0.70;;
4819;SDS011;2424;49.696;6.630;2023-12-04T09:37:02;1.00;;;1.00;;
4819;SDS011;2424;49.696;6.630;2023-12-04T09:42:25;0.70;;;0.70;;
4819;SDS011;2424;49.696;6.630;2023-12-04T09:47:48;0.90;;;0.77;;
4819;SDS011;2424;49.696;6.630;2023-12-04T09:53:10;1.60;;;1.50;;
4819;SDS011;2424;49.696;6.630;2023-12-04T09:58:35;0.20;;;0.20;;
4819;SDS011;2424;49.696;6.630;2023-12-04T10:04:01;1.07;;;1.07;;
4819;SDS011;2424;49.696;6.630;2023-12-04T10:09:25;1.50;;;1.27;;
4819;SDS011;2424;49.696;6.630;2023-12-04T10:14:56;1.23;;;1.23;;
4819;SDS011;2424;49.696;6.630;2023-12-04T10:20:25;2.50;;;2.07;;
4819;SDS011;2424;49.696;6.630;2023-12-04T10:25:48;3.63;;;3.43;;
4819;SDS011;2424;49.696;6.630;2023-12-04T10:31:12;1.03;;;1.03;;
4819;SDS011;2424;49.696;6.630;2023-12-04T10:36:34;1.20;;;1.20;;
4819;SDS011;2424;49.696;6.630;2023-12-04T10:42:00;0.50;;;0.50;;
4819;SDS011;2424;49.696;6.630;2023-12-04T10:47:24;1.43;;;1.33;;
4819;SDS011;2424;49.696;6.630;2023-12-04T10:52:47;1.87;;;1.77;;
4819;SDS011;2424;49.696;6.630;2023-12-04T10:58:09;0.73;;;0.73;;
4819;SDS011;2424;49.696;6.630;2023-12-04T11:03:34;1.33;;;0.90;;
4819;SDS011;2424;49.696;6.630;2023-12-04T11:09:02;2.33;;;1.53;;
4819;SDS011;2424;49.696;6.630;2023-12-04T11:14:27;1.43;;;1.20;;
4819;SDS011;2424;49.696;6.630;2023-12-04T11:19:58;0.90;;;0.90;;
4819;SDS011;2424;49.696;6.630;2023-12-04T11:25:27;2.00;;;1.50;;
4819;SDS011;2424;49.696;6.630;2023-12-04T11:30:54;1.33;;;1.03;;
4819;SDS011;2424;49.696;6.630;2023-12-04T11:36:18;1.70;;;1.60;;
4819;SDS011;2424;49.696;6.630;2023-12-04T11:41:40;0.90;;;0.90;;
4819;SDS011;2424;49.696;6.630;2023-12-04T11:47:04;1.27;;;1.17;;
4819;SDS011;2424;49.696;6.630;2023-12-04T11:52:38;1.03;;;1.03;;
4819;SDS011;2424;49.696;6.630;2023-12-04T11:58:00;1.17;;;1.17;;
4819;SDS011;2424;49.696;6.630;2023-12-04T12:03:29;0.80;;;0.80;;
4819;SDS011;2424;49.696;6.630;2023-12-04T12:08:52;0.90;;;0.90;;
4819;SDS011;2424;49.696;6.630;2023-12-04T12:14:19;1.40;;;1.40;;
4819;SDS011;2424;49.696;6.630;2023-12-04T12:19:42;0.60;;;0.60;;
4819;SDS011;2424;49.696;6.630;2023-12-04T12:25:06;0.63;;;0.63;;
4819;SDS011;2424;49.696;6.630;2023-12-04T12:30:29;0.60;;;0.60;;
4819;SDS011;2424;49.696;6.630;2023-12-04T12:35:50;0.70;;;0.70;;
4819;SDS011;2424;49.696;6.630;2023-12-04T12:41:14;0.47;;;0.47;;
4819;SDS011;2424;49.696;6.630;2023-12-04T12:46:36;0.90;;;0.90;;
4819;SDS011;2424;49.696;6.630;2023-12-04T12:51:59;1.90;;;0.57;;
4819;SDS011;2424;49.696;6.630;2023-12-04T12:57:23;0.50;;;0.50;;
4819;SDS011;2424;49.696;6.630;2023-12-04T13:02:45;1.73;;;1.73;;
4819;SDS011;2424;49.696;6.630;2023-12-04T13:08:07;1.10;;;1.10;;
4819;SDS011;2424;49.696;6.630;2023-12-04T13:13:32;2.43;;;0.90;;
4819;SDS011;2424;49.696;6.630;2023-12-04T13:18:54;1.00;;;1.00;;
4819;SDS011;2424;49.696;6.630;2023-12-04T13:24:16;0.20;;;0.20;;
4819;SDS011;2424;49.696;6.630;2023-12-04T13:29:39;0.70;;;0.53;;
4819;SDS011;2424;49.696;6.630;2023-12-04T13:35:01;0.40;;;0.40;;
4819;SDS011;2424;49.696;6.630;2023-12-04T13:40:24;1.03;;;1.03;;
4819;SDS011;2424;49.696;6.630;2023-12-04T13:45:49;0.70;;;0.70;;
4819;SDS011;2424;49.696;6.630;2023-12-04T13:51:12;0.80;;;0.80;;
4819;SDS011;2424;49.696;6.630;2023-12-04T13:56:35;0.70;;;0.70;;
4819;SDS011;2424;49.696;6.630;2023-12-04T14:08:29;0.50;;;0.50;;
4819;SDS011;2424;49.696;6.630;2023-12-04T14:13:51;0.20;;;0.20;;
4819;SDS011;2424;49.696;6.630;2023-12-04T14:19:12;1.10;;;1.10;;
4819;SDS011;2424;49.696;6.630;2023-12-04T14:24:38;1.00;;;1.00;;
4819;SDS011;2424;49.696;6.630;2023-12-04T14:30:00;0.63;;;0.63;;
4819;SDS011;2424;49.696;6.630;2023-12-04T14:35:23;0.60;;;0.60;;
4819;SDS011;2424;49.696;6.630;2023-12-04T14:40:47;0.73;;;0.50;;
4819;SDS011;2424;49.696;6.630;2023-12-04T14:46:09;0.20;;;0.20;;
4819;SDS011;2424;49.696;6.630;2023-12-04T14:51:30;0.80;;;0.80;;
4819;SDS011;2424;49.696;6.630;2023-12-04T14:56:54;0.50;;;0.50;;
4819;SDS011;2424;49.696;6.630;2023-12-04T15:02:32;0.93;;;0.93;;
4819;SDS011;2424;49.696;6.630;2023-12-04T15:08:27;1.27;;;1.27;;
4819;SDS011;2424;49.696;6.630;2023-12-04T15:14:07;2.07;;;1.97;;
4819;SDS011;2424;49.696;6.630;2023-12-04T15:19:40;0.87;;;0.87;;
4819;SDS011;2424;49.696;6.630;2023-12-04T15:25:18;1.93;;;1.83;;
4819;SDS011;2424;49.696;6.630;2023-12-04T15:30:41;3.33;;;3.13;;
4819;SDS011;2424;49.696;6.630;2023-12-04T15:36:04;1.63;;;1.53;;
4819;SDS011;2424;49.696;6.630;2023-12-04T15:41:27;1.50;;;1.50;;
4819;SDS011;2424;49.696;6.630;2023-12-04T15:46:50;0.90;;;0.90;;
4819;SDS011;2424;49.696;6.630;2023-12-04T15:52:12;1.10;;;1.10;;
4819;SDS011;2424;49.696;6.630;2023-12-04T15:57:38;1.93;;;1.50;;
4819;SDS011;2424;49.696;6.630;2023-12-04T16:03:02;3.93;;;1.70;;
4819;SDS011;2424;49.696;6.630;2023-12-04T16:08:24;2.40;;;2.00;;
4819;SDS011;2424;49.696;6.630;2023-12-04T16:13:47;1.70;;;1.60;;
4819;SDS011;2424;49.696;6.630;2023-12-04T16:19:10;2.53;;;1.87;;
4819;SDS011;2424;49.696;6.630;2023-12-04T16:24:32;1.40;;;1.30;;
4819;SDS011;2424;49.696;6.630;2023-12-04T16:29:54;1.63;;;1.60;;
4819;SDS011;2424;49.696;6.630;2023-12-04T16:35:18;2.53;;;1.77;;
4819;SDS011;2424;49.696;6.630;2023-12-04T16:40:40;1.20;;;1.10;;
4819;SDS011;2424;49.696;6.630;2023-12-04T16:46:02;1.63;;;1.53;;
4819;SDS011;2424;49.696;6.630;2023-12-04T16:51:25;1.37;;;1.37;;
4819;SDS011;2424;49.696;6.630;2023-12-04T16:56:47;4.00;;;1.03;;
4819;SDS011;2424;49.696;6.630;2023-12-04T17:02:09;2.30;;;2.20;;
4819;SDS011;2424;49.696;6.630;2023-12-04T17:07:33;2.20;;;2.00;;
4819;SDS011;2424;49.696;6.630;2023-12-04T17:12:55;3.57;;;2.50;;
4819;SDS011;2424;49.696;6.630;2023-12-04T17:18:17;3.53;;;2.47;;
4819;SDS011;2424;49.696;6.630;2023-12-04T17:23:40;1.77;;;1.67;;
4819;SDS011;2424;49.696;6.630;2023-12-04T17:29:02;1.87;;;1.77;;
4819;SDS011;2424;49.696;6.630;2023-12-04T17:34:24;5.67;;;2.43;;
4819;SDS011;2424;49.696;6.630;2023-12-04T17:39:47;4.00;;;3.70;;
4819;SDS011;2424;49.696;6.630;2023-12-04T17:45:09;3.10;;;2.77;;
4819;SDS011;2424;49.696;6.630;2023-12-04T17:50:32;1.13;;;1.13;;
4819;SDS011;2424;49.696;6.630;2023-12-04T17:55:55;5.23;;;4.73;;
4819;SDS011;2424;49.696;6.630;2023-12-04T18:01:17;4.40;;;3.40;;
4819;SDS011;2424;49.696;6.630;2023-12-04T18:06:39;1.37;;;1.37;;
4819;SDS011;2424;49.696;6.630;2023-12-04T18:12:03;3.90;;;2.73;;
4819;SDS011;2424;49.696;6.630;2023-12-04T18:17:25;3.47;;;3.17;;
4819;SDS011;2424;49.696;6.630;2023-12-04T18:22:48;2.70;;;2.03;;
4819;SDS011;2424;49.696;6.630;2023-12-04T18:28:11;1.80;;;1.77;;
4819;SDS011;2424;49.696;6.630;2023-12-04T18:33:35;2.80;;;2.60;;
4819;SDS011;2424;49.696;6.630;2023-12-04T18:38:57;3.80;;;3.50;;
4819;SDS011;2424;49.696;6.630;2023-12-04T18:44:23;3.20;;;2.50;;
4819;SDS011;2424;49.696;6.630;2023-12-04T18:49:47;8.13;;;4.47;;
4819;SDS011;2424;49.696;6.630;2023-12-04T18:55:10;4.03;;;3.77;;
4819;SDS011;2424;49.696;6.630;2023-12-04T19:00:33;0.77;;;0.77;;
4819;SDS011;2424;49.696;6.630;2023-12-04T19:05:59;4.00;;;2.50;;
4819;SDS011;2424;49.696;6.630;2023-12-04T19:11:21;3.53;;;2.97;;
4819;SDS011;2424;49.696;6.630;2023-12-04T19:16:44;1.80;;;1.70;;
4819;SDS011;2424;49.696;6.630;2023-12-04T19:22:06;2.37;;;2.20;;
4819;SDS011;2424;49.696;6.630;2023-12-04T19:27:28;2.50;;;2.30;;
4819;SDS011;2424;49.696;6.630;2023-12-04T19:32:51;7.80;;;4.70;;
4819;SDS011;2424;49.696;6.630;2023-12-04T19:38:14;3.00;;;2.77;;
4819;SDS011;2424;49.696;6.630;2023-12-04T19:43:39;2.80;;;2.50;;
4819;SDS011;2424;49.696;6.630;2023-12-04T19:49:02;3.10;;;2.90;;
4819;SDS011;2424;49.696;6.630;2023-12-04T19:54:24;1.77;;;1.67;;
4819;SDS011;2424;49.696;6.630;2023-12-04T19:59:46;4.57;;;3.50;;
4819;SDS011;2424;49.696;6.630;2023-12-04T20:05:11;5.10;;;3.77;;
4819;SDS011;2424;49.696;6.630;2023-12-04T20:10:33;3.47;;;3.03;;
4819;SDS011;2424;49.696;6.630;2023-12-04T20:15:58;3.10;;;2.90;;
4819;SDS011;2424;49.696;6.630;2023-12-04T20:21:21;2.00;;;1.87;;
4819;SDS011;2424;49.696;6.630;2023-12-04T20:26:43;3.37;;;1.43;;
4819;SDS011;2424;49.696;6.630;2023-12-04T20:32:05;3.97;;;3.57;;
4819;SDS011;2424;49.696;6.630;2023-12-04T20:37:30;2.87;;;2.67;;
4819;SDS011;2424;49.696;6.630;2023-12-04T20:42:52;3.73;;;3.43;;
4819;SDS011;2424;49.696;6.630;2023-12-04T20:48:14;4.20;;;3.80;;
4819;SDS011;2424;49.696;6.630;2023-12-04T20:53:38;1.73;;;1.63;;
4819;SDS011;2424;49.696;6.630;2023-12-04T20:58:59;2.40;;;2.20;;
4819;SDS011;2424;49.696;6.630;2023-12-04T21:04:22;2.40;;;2.30;;
4819;SDS011;2424;49.696;6.630;2023-12-04T21:09:45;5.93;;;4.00;;
4819;SDS011;2424;49.696;6.630;2023-12-04T21:15:08;2.57;;;2.37;;
4819;SDS011;2424;49.696;6.630;2023-12-04T21:20:30;5.57;;;3.80;;
4819;SDS011;2424;49.696;6.630;2023-12-04T21:25:53;2.90;;;2.70;;
4819;SDS011;2424;49.696;6.630;2023-12-04T21:31:17;5.60;;;3.20;;
4819;SDS011;2424;49.696;6.630;2023-12-04T21:36:39;5.33;;;4.70;;
4819;SDS011;2424;49.696;6.630;2023-12-04T21:42:02;2.43;;;2.30;;
4819;SDS011;2424;49.696;6.630;2023-12-04T21:47:25;2.73;;;2.53;;
4819;SDS011;2424;49.696;6.630;2023-12-04T21:52:47;1.83;;;1.73;;
4819;SDS011;2424;49.696;6.630;2023-12-04T21:58:11;1.80;;;1.70;;
4819;SDS011;2424;49.696;6.630;2023-12-04T22:03:33;6.17;;;5.17;;
4819;SDS011;2424;49.696;6.630;2023-12-04T22:08:55;6.03;;;3.63;;
4819;SDS011;2424;49.696;6.630;2023-12-04T22:14:18;6.30;;;4.80;;
4819;SDS011;2424;49.696;6.630;2023-12-04T22:19:40;4.23;;;3.50;;
4819;SDS011;2424;49.696;6.630;2023-12-04T22:25:02;5.40;;;4.90;;
4819;SDS011;2424;49.696;6.630;2023-12-04T22:30:26;3.30;;;3.10;;
4819;SDS011;2424;49.696;6.630;2023-12-04T22:35:48;3.63;;;3.33;;
4819;SDS011;2424;49.696;6.630;2023-12-04T22:41:11;1.80;;;1.70;;
4819;SDS011;2424;49.696;6.630;2023-12-04T22:46:34;2.60;;;2.47;;
4819;SDS011;2424;49.696;6.630;2023-12-04T22:51:56;1.00;;;1.00;;
4819;SDS011;2424;49.696;6.630;2023-12-04T22:57:18;0.60;;;0.60;;
4819;SDS011;2424;49.696;6.630;2023-12-04T23:02:41;0.87;;;0.87;;
4819;SDS011;2424;49.696;6.630;2023-12-04T23:08:03;0.73;;;0.73;;
4819;SDS011;2424;49.696;6.630;2023-12-04T23:13:25;1.00;;;0.87;;
4819;SDS011;2424;49.696;6.630;2023-12-04T23:18:49;1.67;;;1.57;;
4819;SDS011;2424;49.696;6.630;2023-12-04T23:24:11;1.23;;;1.23;;
4819;SDS011;2424;49.696;6.630;2023-12-04T23:29:33;1.13;;;1.13;;
4819;SDS011;2424;49.696;6.630;2023-12-04T23:34:56;0.60;;;0.60;;
4819;SDS011;2424;49.696;6.630;2023-12-04T23:40:18;0.83;;;0.83;;
4819;SDS011;2424;49.696;6.630;2023-12-04T23:45:40;1.00;;;0.90;;
4819;SDS011;2424;49.696;6.630;2023-12-04T23:51:03;0.90;;;0.90;;
4819;SDS011;2424;49.696;6.630;2023-12-04T23:56:26;0.50;;;0.50;;
